Time;durP1;ratioP1;P1;durP2;ratioP2;P2;SDS_P1;SDS_P2;PMS_P1;PMS_P2;Temp;Humidity;BMP_temperature;BMP_pressure;BME280_temperature;BME280_humidity;BME280_pressure;Samples;Min_cycle;Max_cycle;Signal;HPM_P1;HPM_P2
2023/12/17 00:01:29;;;;;;;17.57;14.27;;;;;;;1.79;100.00;100369.66;5095106;28;20203;-73
2023/12/17 00:03:56;;;;;;;17.50;13.67;;;;;;;1.75;100.00;100373.47;5093768;28;20211;-73
2023/12/17 00:06:22;;;;;;;19.80;13.80;;;;;;;1.62;100.00;100370.03;5094871;28;20286;-73
2023/12/17 00:08:49;;;;;;;21.93;15.87;;;;;;;1.61;100.00;100371.78;5094933;28;20203;-73
2023/12/17 00:11:16;;;;;;;21.53;14.20;;;;;;;1.70;100.00;100376.41;5094801;28;20243;-73
2023/12/17 00:13:42;;;;;;;17.07;13.57;;;;;;;1.65;100.00;100373.25;5094747;28;20211;-73
2023/12/17 00:16:09;;;;;;;18.50;13.90;;;;;;;1.62;100.00;100370.84;5094756;28;20208;-73
2023/12/17 00:18:35;;;;;;;21.30;14.30;;;;;;;1.68;100.00;100373.06;5094756;28;20226;-73
2023/12/17 00:21:01;;;;;;;18.60;14.60;;;;;;;1.68;100.00;100380.06;5094399;28;20666;-73
2023/12/17 00:23:28;;;;;;;18.47;14.13;;;;;;;1.69;100.00;100389.59;5094650;28;20226;-73
2023/12/17 00:25:54;;;;;;;19.20;14.17;;;;;;;1.75;100.00;100397.06;5094563;28;20206;-73
2023/12/17 00:28:20;;;;;;;17.00;13.40;;;;;;;1.73;100.00;100396.31;5094528;28;20230;-73
2023/12/17 00:30:47;;;;;;;16.60;12.73;;;;;;;1.77;100.00;100382.91;5094431;28;20344;-73
2023/12/17 00:33:13;;;;;;;17.13;12.83;;;;;;;1.69;100.00;100384.38;5094414;28;20207;-73
2023/12/17 00:35:39;;;;;;;18.43;13.40;;;;;;;1.64;100.00;100387.31;5094388;28;20215;-73
2023/12/17 00:38:06;;;;;;;15.87;12.40;;;;;;;1.64;100.00;100389.09;5094280;28;20231;-73
2023/12/17 00:40:33;;;;;;;16.97;13.37;;;;;;;1.64;100.00;100386.47;5093945;28;20710;-73
2023/12/17 00:42:59;;;;;;;16.63;12.63;;;;;;;1.59;100.00;100393.81;5093894;28;20218;-73
2023/12/17 00:45:25;;;;;;;14.40;12.87;;;;;;;1.60;100.00;100385.00;5093850;28;20207;-73
2023/12/17 00:47:52;;;;;;;15.47;12.53;;;;;;;1.63;100.00;100390.88;5093983;28;20218;-73
2023/12/17 00:50:18;;;;;;;18.77;12.57;;;;;;;1.59;100.00;100394.66;5094134;28;20235;-73
2023/12/17 00:52:44;;;;;;;15.33;12.07;;;;;;;1.60;100.00;100387.63;5094070;28;20235;-73
2023/12/17 00:55:11;;;;;;;15.63;11.83;;;;;;;1.59;100.00;100389.44;5094005;28;20549;-73
2023/12/17 00:57:37;;;;;;;17.47;12.67;;;;;;;1.48;100.00;100380.63;5093648;28;20725;-73
2023/12/17 01:00:04;;;;;;;16.10;12.27;;;;;;;1.47;100.00;100386.78;5094318;28;20307;-73
2023/12/17 01:02:30;;;;;;;16.13;12.63;;;;;;;1.49;100.00;100384.91;5094356;28;20256;-73
2023/12/17 01:04:57;;;;;;;15.50;12.27;;;;;;;1.54;100.00;100372.31;5093970;28;20199;-73
2023/12/17 01:07:24;;;;;;;14.93;12.03;;;;;;;1.52;100.00;100374.19;5093593;28;20204;-73
2023/12/17 01:09:50;;;;;;;14.13;11.97;;;;;;;1.53;100.00;100375.91;5093505;28;20745;-73
2023/12/17 01:12:16;;;;;;;16.67;12.60;;;;;;;1.60;100.00;100387.63;5093570;28;20214;-73
2023/12/17 01:14:43;;;;;;;14.40;12.07;;;;;;;1.53;100.00;100395.06;5092978;28;20214;-73
2023/12/17 01:17:09;;;;;;;16.73;11.80;;;;;;;1.53;100.00;100396.88;5093531;28;20230;-73
2023/12/17 01:19:37;;;;;;;15.97;12.13;;;;;;;1.56;100.00;100394.03;5093724;28;20223;-73
2023/12/17 01:22:04;;;;;;;16.57;12.70;;;;;;;1.56;100.00;100394.03;5093688;28;20268;-73
2023/12/17 01:24:31;;;;;;;15.47;12.07;;;;;;;1.53;100.00;100397.69;5093672;28;20206;-73
2023/12/17 01:26:58;;;;;;;14.23;11.90;;;;;;;1.51;100.00;100403.97;5093657;28;20243;-73
2023/12/17 01:29:25;;;;;;;16.27;12.83;;;;;;;1.51;100.00;100407.47;5093540;28;20228;-73
2023/12/17 01:31:51;;;;;;;15.93;12.33;;;;;;;1.52;100.00;100408.28;5093579;28;20203;-73
2023/12/17 01:34:19;;;;;;;14.43;12.03;;;;;;;1.57;100.00;100406.22;5093540;28;20203;-73
2023/12/17 01:36:45;;;;;;;13.50;11.47;;;;;;;1.51;100.00;100403.97;5093474;28;20228;-73
2023/12/17 01:39:11;;;;;;;14.70;12.80;;;;;;;1.50;100.00;100407.56;5093474;28;20219;-73
2023/12/17 01:41:38;;;;;;;14.80;12.47;;;;;;;1.56;100.00;100409.75;5093504;28;20200;-73
2023/12/17 01:44:04;;;;;;;13.43;11.43;;;;;;;1.56;100.00;100410.59;5093216;28;20214;-73
2023/12/17 01:46:31;;;;;;;15.70;12.37;;;;;;;1.59;100.00;100399.06;5093189;28;20218;-73
2023/12/17 01:48:58;;;;;;;16.03;13.57;;;;;;;1.55;100.00;100408.06;5092938;28;20241;-73
2023/12/17 01:51:24;;;;;;;18.53;13.77;;;;;;;1.54;100.00;100396.75;5093495;28;20210;-73
2023/12/17 01:53:51;;;;;;;17.30;14.03;;;;;;;1.59;100.00;100404.31;5093152;28;20204;-73
2023/12/17 01:56:18;;;;;;;18.57;14.07;;;;;;;1.59;100.00;100404.31;5093476;28;20214;-73
2023/12/17 01:58:45;;;;;;;21.13;14.07;;;;;;;1.53;100.00;100405.56;5093280;28;20223;-73
2023/12/17 02:01:12;;;;;;;28.00;14.87;;;;;;;1.56;100.00;100407.97;5093380;28;20261;-73
2023/12/17 02:03:38;;;;;;;29.50;15.03;;;;;;;1.52;100.00;100403.03;5093407;28;20200;-73
2023/12/17 02:06:06;;;;;;;22.20;15.33;;;;;;;1.49;100.00;100411.94;5093322;28;20200;-73
2023/12/17 02:08:33;;;;;;;18.00;14.13;;;;;;;1.51;100.00;100406.59;5093367;28;20200;-73
2023/12/17 02:10:59;;;;;;;17.17;14.10;;;;;;;1.49;100.00;100398.03;5093279;28;20224;-73
2023/12/17 02:13:25;;;;;;;16.37;13.20;;;;;;;1.44;100.00;100389.63;5093272;28;20208;-73
2023/12/17 02:15:52;;;;;;;15.60;12.33;;;;;;;1.45;100.00;100400.03;5092975;28;20573;-73
2023/12/17 02:18:18;;;;;;;13.57;11.93;;;;;;;1.47;100.00;100403.38;5093105;28;20220;-73
2023/12/17 02:20:44;;;;;;;16.93;11.77;;;;;;;1.40;100.00;100401.28;5093104;28;20224;-73
2023/12/17 02:23:12;;;;;;;15.53;12.07;;;;;;;1.40;100.00;100399.47;5093205;28;20208;-73
2023/12/17 02:25:38;;;;;;;17.13;12.60;;;;;;;1.38;100.00;100397.91;5092842;28;20764;-73
2023/12/17 02:28:05;;;;;;;15.10;12.03;;;;;;;1.40;100.00;100401.28;5096835;28;20204;-73
2023/12/17 02:30:31;;;;;;;13.77;11.27;;;;;;;1.41;100.00;100402.94;5096461;28;20234;-73
2023/12/17 02:32:57;;;;;;;14.90;11.77;;;;;;;1.39;100.00;100395.19;5096370;28;20208;-73
2023/12/17 02:35:25;;;;;;;13.50;10.80;;;;;;;1.39;100.00;100399.59;5096495;28;20212;-73
2023/12/17 02:37:51;;;;;;;13.03;10.83;;;;;;;1.28;100.00;100402.09;5096595;28;20229;-73
2023/12/17 02:40:18;;;;;;;13.93;10.50;;;;;;;1.16;100.00;100413.38;5096634;28;20220;-73
2023/12/17 02:42:44;;;;;;;12.40;10.70;;;;;;;1.25;100.00;100411.00;5096656;28;20199;-73
2023/12/17 02:45:12;;;;;;;13.63;10.37;;;;;;;1.23;100.00;100415.53;5096572;28;20210;-73
2023/12/17 02:47:39;;;;;;;14.20;10.63;;;;;;;1.19;100.00;100405.34;5096237;28;20630;-73
2023/12/17 02:50:06;;;;;;;12.53;10.80;;;;;;;1.16;100.00;100401.13;5096344;28;20246;-73
2023/12/17 02:52:32;;;;;;;12.60;10.63;;;;;;;1.08;100.00;100397.38;5096482;28;20290;-73
2023/12/17 02:54:59;;;;;;;13.07;11.00;;;;;;;1.07;100.00;100385.22;5096448;28;20227;-73
2023/12/17 02:57:26;;;;;;;13.63;10.47;;;;;;;1.04;100.00;100383.63;5096189;28;20230;-73
2023/12/17 02:59:53;;;;;;;11.93;9.90;;;;;;;1.03;100.00;100381.13;5096214;28;20224;-73
2023/12/17 03:02:20;;;;;;;12.60;9.63;;;;;;;1.04;100.00;100383.63;5095906;28;20208;-73
2023/12/17 03:04:47;;;;;;;10.87;9.37;;;;;;;1.01;100.00;100381.22;5096169;28;20208;-73
2023/12/17 03:07:14;;;;;;;11.07;9.73;;;;;;;0.95;100.00;100383.41;5096215;28;20207;-73
2023/12/17 03:09:40;;;;;;;12.10;10.40;;;;;;;0.99;100.00;100390.13;5096062;28;20224;-73
2023/12/17 03:12:07;;;;;;;12.90;9.87;;;;;;;1.01;100.00;100380.38;5096059;28;20210;-73
2023/12/17 03:14:33;;;;;;;11.90;9.50;;;;;;;1.02;100.00;100374.19;5095728;28;20654;-73
2023/12/17 03:16:59;;;;;;;10.90;9.80;;;;;;;0.98;100.00;100377.97;5095886;28;20295;-73
2023/12/17 03:19:26;;;;;;;11.27;10.07;;;;;;;1.03;100.00;100368.03;5096354;28;20228;-73
2023/12/17 03:21:52;;;;;;;10.30;9.23;;;;;;;1.02;100.00;100372.41;5095812;28;20227;-73
2023/12/17 03:24:18;;;;;;;15.00;10.10;;;;;;;0.98;100.00;100370.13;5095778;28;20206;-73
2023/12/17 03:26:45;;;;;;;11.60;10.03;;;;;;;0.92;100.00;100376.59;5095731;28;20200;-73
2023/12/17 03:29:11;;;;;;;13.33;10.27;;;;;;;0.93;100.00;100374.78;5095730;28;20227;-73
2023/12/17 03:31:37;;;;;;;12.57;9.87;;;;;;;0.92;100.00;100357.41;5095616;28;20210;-73
2023/12/17 03:34:04;;;;;;;13.77;9.73;;;;;;;0.91;100.00;100356.59;5095544;28;20218;-73
2023/12/17 03:36:30;;;;;;;12.30;9.87;;;;;;;0.92;100.00;100341.69;5095298;28;20208;-73
2023/12/17 03:38:58;;;;;;;11.37;9.63;;;;;;;0.91;100.00;100338.25;5095022;28;20228;-73
2023/12/17 03:41:26;;;;;;;9.83;8.83;;;;;;;0.95;100.00;100336.28;5095478;28;20601;-73
2023/12/17 03:43:54;;;;;;;10.80;9.13;;;;;;;0.85;100.00;100336.03;5095072;28;20677;-73
2023/12/17 03:46:21;;;;;;;11.03;9.53;;;;;;;0.85;100.00;100332.59;5095097;28;20215;-73
2023/12/17 03:48:48;;;;;;;10.80;9.70;;;;;;;0.82;100.00;100338.03;5094929;28;20211;-73
2023/12/17 03:51:15;;;;;;;10.10;9.03;;;;;;;0.81;100.00;100325.88;5095278;28;20203;-73
2023/12/17 03:53:41;;;;;;;11.07;9.03;;;;;;;0.84;100.00;100323.03;5094973;28;20208;-73
2023/12/17 03:56:09;;;;;;;12.00;9.20;;;;;;;0.82;100.00;100322.31;5095142;28;20204;-73
2023/12/17 03:58:37;;;;;;;12.53;9.07;;;;;;;0.88;100.00;100321.91;5094711;28;20723;-73
2023/12/17 04:01:04;;;;;;;16.20;9.63;;;;;;;0.79;100.00;100333.00;5095114;28;20204;-73
2023/12/17 04:03:30;;;;;;;11.63;9.03;;;;;;;0.80;100.00;100335.50;5094979;28;20208;-73
2023/12/17 04:05:59;;;;;;;10.43;9.23;;;;;;;0.82;100.00;100332.78;5094784;28;20210;-73
2023/12/17 04:08:26;;;;;;;11.60;9.73;;;;;;;0.82;100.00;100325.78;5094731;28;20539;-73
2023/12/17 04:10:52;;;;;;;12.30;9.07;;;;;;;0.86;100.00;100323.78;5094321;28;20590;-73
2023/12/17 04:13:19;;;;;;;13.67;9.67;;;;;;;0.82;100.00;100322.31;5094731;28;20208;-73
2023/12/17 04:15:45;;;;;;;11.77;8.73;;;;;;;0.77;100.00;100332.25;5094627;28;20206;-73
2023/12/17 04:18:12;;;;;;;10.33;8.80;;;;;;;0.77;100.00;100327.03;5094657;28;20219;-73
2023/12/17 04:20:39;;;;;;;11.00;8.93;;;;;;;0.79;100.00;100320.75;5094606;28;20223;-73
2023/12/17 04:23:05;;;;;;;10.73;9.07;;;;;;;0.76;100.00;100331.41;5094596;28;20308;-73
2023/12/17 04:25:31;;;;;;;9.67;8.53;;;;;;;0.80;100.00;100325.03;5094692;28;20208;-73
2023/12/17 04:27:58;;;;;;;10.60;8.63;;;;;;;0.79;100.00;100320.75;5094224;28;20658;-73
2023/12/17 04:30:24;;;;;;;10.70;9.60;;;;;;;0.77;100.00;100321.78;5094084;28;20231;-73
2023/12/17 04:32:51;;;;;;;9.90;8.90;;;;;;;0.69;100.00;100321.47;5094443;28;20567;-73
2023/12/17 04:35:17;;;;;;;9.33;8.43;;;;;;;0.65;100.00;100327.84;5094402;28;20305;-73
2023/12/17 04:37:43;;;;;;;13.80;10.70;;;;;;;0.69;100.00;100327.53;5093903;28;20888;-73
2023/12/17 04:40:11;;;;;;;11.83;9.60;;;;;;;0.68;100.00;100327.63;5094124;28;20219;-73
2023/12/17 04:42:37;;;;;;;11.80;9.67;;;;;;;0.73;100.00;100322.94;5094209;28;20204;-73
2023/12/17 04:45:06;;;;;;;12.10;9.57;;;;;;;0.69;100.00;100324.06;5094350;28;20211;-73
2023/12/17 04:47:32;;;;;;;11.27;9.70;;;;;;;0.69;100.00;100314.44;5094214;28;20330;-73
2023/12/17 04:49:59;;;;;;;10.10;9.10;;;;;;;0.75;100.00;100311.41;5093613;28;20224;-73
2023/12/17 04:52:25;;;;;;;11.50;10.30;;;;;;;0.68;100.00;100315.41;5095025;28;20547;-73
2023/12/17 04:54:51;;;;;;;14.67;10.40;;;;;;;0.67;100.00;100318.94;5094085;28;20207;-73
2023/12/17 04:57:18;;;;;;;11.97;10.07;;;;;;;0.67;100.00;100323.34;5094037;28;20199;-73
2023/12/17 04:59:44;;;;;;;12.93;10.10;;;;;;;0.64;100.00;100318.31;5093694;28;20231;-73
2023/12/17 05:02:10;;;;;;;11.83;9.50;;;;;;;0.67;100.00;100315.50;5094013;28;20208;-73
2023/12/17 05:04:37;;;;;;;10.17;8.83;;;;;;;0.73;100.00;100308.06;5093930;28;20204;-73
2023/12/17 05:07:03;;;;;;;10.40;9.20;;;;;;;0.74;100.00;100304.50;5093905;28;20214;-73
2023/12/17 05:09:29;;;;;;;13.23;9.70;;;;;;;0.66;100.00;100317.25;5093783;28;20222;-73
2023/12/17 05:11:57;;;;;;;10.57;9.47;;;;;;;0.70;100.00;100312.66;5093724;28;20203;-73
2023/12/17 05:14:23;;;;;;;12.20;10.00;;;;;;;0.62;100.00;100320.19;5093778;28;20206;-73
2023/12/17 05:16:49;;;;;;;10.20;9.10;;;;;;;0.70;100.00;100307.41;5093777;28;20207;-73
2023/12/17 05:19:16;;;;;;;12.07;9.43;;;;;;;0.68;100.00;100307.53;5093612;28;20242;-73
2023/12/17 05:21:42;;;;;;;10.37;8.83;;;;;;;0.69;100.00;100300.50;5093775;28;20208;-73
2023/12/17 05:24:08;;;;;;;10.70;8.93;;;;;;;0.69;100.00;100297.91;5093639;28;20199;-73
2023/12/17 05:26:35;;;;;;;11.03;9.67;;;;;;;0.68;100.00;100293.59;5093690;28;20207;-73
2023/12/17 05:29:01;;;;;;;11.10;9.57;;;;;;;0.69;100.00;100284.81;5093597;28;20226;-73
2023/12/17 05:31:27;;;;;;;10.40;9.33;;;;;;;0.66;100.00;100279.78;5093581;28;20210;-73
2023/12/17 05:33:54;;;;;;;12.93;9.57;;;;;;;0.59;100.00;100287.22;5093596;28;20211;-73
2023/12/17 05:36:21;;;;;;;10.93;9.50;;;;;;;0.60;100.00;100288.88;5093450;28;20203;-73
2023/12/17 05:38:47;;;;;;;10.97;9.17;;;;;;;0.62;100.00;100283.56;5093273;28;20246;-73
2023/12/17 05:41:13;;;;;;;12.43;9.10;;;;;;;0.60;100.00;100280.19;5093499;28;20207;-73
2023/12/17 05:43:40;;;;;;;11.57;9.50;;;;;;;0.60;100.00;100285.44;5092939;28;20662;-73
2023/12/17 05:46:06;;;;;;;10.37;8.90;;;;;;;0.55;100.00;100284.91;5093295;28;20567;-73
2023/12/17 05:48:33;;;;;;;11.57;8.83;;;;;;;0.58;100.00;100287.31;5092973;28;20211;-73
2023/12/17 05:50:59;;;;;;;12.30;9.40;;;;;;;0.56;100.00;100278.72;5093259;28;20220;-73
2023/12/17 05:53:25;;;;;;;12.03;8.70;;;;;;;0.51;100.00;100279.03;5093315;28;20215;-73
2023/12/17 05:55:53;;;;;;;14.30;9.37;;;;;;;0.46;100.00;100281.13;5093368;28;20203;-73
2023/12/17 05:58:19;;;;;;;10.73;8.97;;;;;;;0.51;100.00;100296.50;5093316;28;20223;-73
2023/12/17 06:00:46;;;;;;;11.43;9.17;;;;;;;0.50;100.00;100300.06;5094939;28;20230;-73
2023/12/17 06:03:12;;;;;;;12.13;9.13;;;;;;;0.55;100.00;100304.06;5097071;28;20548;-73
2023/12/17 06:05:38;;;;;;;12.20;9.97;;;;;;;0.55;100.00;100311.91;5097224;28;20254;-73
2023/12/17 06:08:05;;;;;;;10.47;9.37;;;;;;;0.54;100.00;100306.78;5096704;28;20667;-73
2023/12/17 06:10:31;;;;;;;10.10;8.70;;;;;;;0.58;100.00;100311.69;5096731;28;20702;-73
2023/12/17 06:12:58;;;;;;;11.83;10.13;;;;;;;0.56;100.00;100310.97;5097028;28;20571;-73
2023/12/17 06:15:24;;;;;;;10.87;8.97;;;;;;;0.51;100.00;100312.19;5097048;28;20208;-73
2023/12/17 06:17:50;;;;;;;12.03;9.70;;;;;;;0.55;100.00;100309.31;5096996;28;20575;-73
2023/12/17 06:20:17;;;;;;;10.00;8.93;;;;;;;0.55;100.00;100314.53;5096533;28;20706;-73
2023/12/17 06:22:43;;;;;;;11.97;9.53;;;;;;;0.56;100.00;100310.13;5096952;28;20211;-73
2023/12/17 06:25:09;;;;;;;9.90;8.90;;;;;;;0.54;100.00;100318.06;5096968;28;20199;-73
2023/12/17 06:27:36;;;;;;;12.27;8.87;;;;;;;0.53;100.00;100305.94;5096918;28;20211;-73
2023/12/17 06:30:03;;;;;;;11.63;9.23;;;;;;;0.52;100.00;100308.63;5097032;28;20224;-73
2023/12/17 06:32:30;;;;;;;10.30;9.17;;;;;;;0.46;100.00;100315.16;5096815;28;20208;-73
2023/12/17 06:34:56;;;;;;;9.97;8.97;;;;;;;0.44;100.00;100310.94;5096692;28;20200;-73
2023/12/17 06:37:23;;;;;;;12.23;8.97;;;;;;;0.53;100.00;100320.81;5096639;28;20243;-73
2023/12/17 06:39:50;;;;;;;10.63;9.43;;;;;;;0.50;100.00;100316.63;5096344;28;20258;-73
2023/12/17 06:42:16;;;;;;;9.93;8.90;;;;;;;0.55;100.00;100322.38;5096632;28;20210;-73
2023/12/17 06:44:42;;;;;;;10.00;8.73;;;;;;;0.52;100.00;100327.81;5096275;28;20659;-73
2023/12/17 06:47:09;;;;;;;10.00;9.00;;;;;;;0.54;100.00;100319.88;5096077;28;20670;-73
2023/12/17 06:49:37;;;;;;;11.00;9.13;;;;;;;0.52;100.00;100319.09;5096444;28;20224;-73
2023/12/17 06:52:04;;;;;;;11.27;9.47;;;;;;;0.47;100.00;100321.19;5096305;28;20206;-73
2023/12/17 06:54:30;;;;;;;11.90;9.10;;;;;;;0.46;100.00;100315.16;5096370;28;20203;-73
2023/12/17 06:56:57;;;;;;;9.13;8.13;;;;;;;0.53;100.00;100326.88;5096373;28;20204;-73
2023/12/17 06:59:23;;;;;;;10.33;8.47;;;;;;;0.53;100.00;100326.06;5096132;28;20232;-73
2023/12/17 07:01:49;;;;;;;11.17;8.47;;;;;;;0.50;100.00;100332.31;5096179;28;20208;-73
2023/12/17 07:04:16;;;;;;;11.83;8.77;;;;;;;0.47;100.00;100330.72;5096200;28;20207;-73
2023/12/17 07:06:42;;;;;;;9.63;8.30;;;;;;;0.48;100.00;100331.56;5096388;28;20204;-73
2023/12/17 07:09:08;;;;;;;10.83;8.87;;;;;;;0.47;100.00;100328.09;5095884;28;20219;-73
2023/12/17 07:11:35;;;;;;;9.90;8.93;;;;;;;0.49;100.00;100329.81;5095342;28;20208;-73
2023/12/17 07:14:01;;;;;;;10.63;8.63;;;;;;;0.48;100.00;100328.94;5095202;28;20215;-73
2023/12/17 07:16:29;;;;;;;10.07;9.03;;;;;;;0.46;100.00;100322.13;5095907;28;20211;-73
2023/12/17 07:18:55;;;;;;;9.30;8.30;;;;;;;0.46;100.00;100320.38;5095444;28;20722;-73
2023/12/17 07:21:21;;;;;;;10.20;8.87;;;;;;;0.50;100.00;100316.63;5095870;28;20204;-73
2023/12/17 07:23:49;;;;;;;9.73;8.73;;;;;;;0.47;100.00;100324.66;5077751;28;20210;-73
2023/12/17 07:26:15;;;;;;;9.13;8.23;;;;;;;0.41;100.00;100319.00;5095806;28;20208;-73
2023/12/17 07:28:42;;;;;;;10.37;8.90;;;;;;;0.44;100.00;100313.56;5095690;28;20202;-73
2023/12/17 07:31:08;;;;;;;10.47;8.93;;;;;;;0.47;100.00;100317.63;5095854;28;20200;-73
2023/12/17 07:33:35;;;;;;;10.03;8.33;;;;;;;0.54;100.00;100306.78;5095716;28;20235;-73
2023/12/17 07:36:01;;;;;;;9.97;8.33;;;;;;;0.58;100.00;100306.47;5095554;28;20230;-73
2023/12/17 07:38:27;;;;;;;8.80;7.90;;;;;;;0.57;100.00;100317.88;5095311;28;20223;-73
2023/12/17 07:40:54;;;;;;;10.60;8.63;;;;;;;0.67;100.00;100313.69;5095350;28;20220;-73
2023/12/17 07:43:20;;;;;;;11.17;8.93;;;;;;;0.64;100.00;100307.84;5095349;28;20208;-73
2023/12/17 07:45:46;;;;;;;11.77;8.40;;;;;;;0.66;100.00;100313.78;5095185;28;20260;-73
2023/12/17 07:48:13;;;;;;;12.47;9.27;;;;;;;0.72;100.00;100311.63;5094806;28;20216;-73
2023/12/17 07:50:40;;;;;;;9.83;8.83;;;;;;;0.75;100.00;100302.72;5094643;28;20728;-73
2023/12/17 07:53:07;;;;;;;11.40;8.60;;;;;;;0.77;100.00;100306.09;5095181;28;20204;-74
2023/12/17 07:55:33;;;;;;;10.40;8.60;;;;;;;0.84;100.00;100304.72;5095373;28;20229;-74
2023/12/17 07:57:59;;;;;;;9.83;8.60;;;;;;;0.84;100.00;100308.19;5095095;28;20283;-74
2023/12/17 08:00:26;;;;;;;11.03;8.80;;;;;;;0.87;100.00;100304.50;5094961;28;20227;-74
2023/12/17 08:02:52;;;;;;;8.73;7.83;;;;;;;0.88;100.00;100301.81;5094762;28;20671;-74
2023/12/17 08:05:19;;;;;;;10.03;8.00;;;;;;;0.91;100.00;100306.00;5094702;28;20563;-74
2023/12/17 08:07:45;;;;;;;10.30;8.77;;;;;;;0.97;100.00;100303.78;5094669;28;20670;-74
2023/12/17 08:10:11;;;;;;;10.17;8.47;;;;;;;1.03;100.00;100307.78;5094699;28;20226;-74
2023/12/17 08:12:38;;;;;;;9.30;8.40;;;;;;;1.09;100.00;100304.75;5094824;28;20206;-74
2023/12/17 08:15:05;;;;;;;10.97;8.03;;;;;;;1.13;100.00;100317.50;5094766;28;20204;-74
2023/12/17 08:17:31;;;;;;;10.80;8.83;;;;;;;1.18;100.00;100317.22;5094727;28;20200;-74
2023/12/17 08:19:58;;;;;;;10.07;8.67;;;;;;;1.22;100.00;100310.81;5094543;28;20239;-74
2023/12/17 08:22:24;;;;;;;12.30;8.80;;;;;;;1.22;100.00;100318.69;5094186;28;20729;-74
2023/12/17 08:24:51;;;;;;;8.50;7.60;;;;;;;1.25;100.00;100314.06;5093548;28;20257;-74
2023/12/17 08:27:18;;;;;;;8.67;7.87;;;;;;;1.29;100.00;100317.28;5093843;28;20615;-74
2023/12/17 08:29:47;;;;;;;8.57;7.73;;;;;;;1.34;100.00;100304.72;5094147;28;20722;-74
2023/12/17 08:32:14;;;;;;;10.30;8.50;;;;;;;1.35;100.00;100311.66;5094456;28;20207;-74
2023/12/17 08:34:41;;;;;;;9.00;7.73;;;;;;;1.37;100.00;100305.34;5094426;28;20203;-74
2023/12/17 08:37:07;;;;;;;11.27;7.77;;;;;;;1.37;100.00;100305.34;5094328;28;20556;-74
2023/12/17 08:39:33;;;;;;;8.10;7.20;;;;;;;1.42;100.00;100313.72;5093671;28;20694;-74
2023/12/17 08:42:00;;;;;;;9.27;8.00;;;;;;;1.43;100.00;100310.16;5093956;28;20207;-74
2023/12/17 08:44:26;;;;;;;8.97;7.77;;;;;;;1.47;100.00;100314.25;5094170;28;20725;-74
2023/12/17 08:46:53;;;;;;;8.43;7.40;;;;;;;1.52;100.00;100308.66;5094075;28;20199;-74
2023/12/17 08:49:20;;;;;;;9.27;8.27;;;;;;;1.56;100.00;100305.75;5093947;28;20231;-74
2023/12/17 08:51:46;;;;;;;8.57;7.67;;;;;;;1.62;100.00;100299.22;5093820;28;20629;-74
2023/12/17 08:54:13;;;;;;;8.87;7.67;;;;;;;1.71;100.00;100295.97;5094070;28;20299;-74
2023/12/17 08:56:42;;;;;;;8.83;7.80;;;;;;;1.75;100.00;100294.78;5093978;28;20211;-74
2023/12/17 08:59:09;;;;;;;9.67;7.97;;;;;;;1.77;100.00;100292.88;5094167;28;20234;-74
2023/12/17 09:01:36;;;;;;;8.40;7.40;;;;;;;1.82;100.00;100290.78;5093968;28;20200;-74
2023/12/17 09:04:02;;;;;;;9.83;7.77;;;;;;;1.82;100.00;100291.63;5093606;28;20204;-74
2023/12/17 09:06:29;;;;;;;9.37;7.67;;;;;;;1.90;100.00;100294.50;5093901;28;20210;-74
2023/12/17 09:08:55;;;;;;;8.50;7.63;;;;;;;2.04;100.00;100285.66;5093658;28;20660;-74
2023/12/17 09:11:21;;;;;;;9.27;7.67;;;;;;;2.08;100.00;100287.94;5093419;28;20671;-74
2023/12/17 09:13:48;;;;;;;10.20;7.87;;;;;;;2.21;100.00;100285.28;5093426;28;20681;-74
2023/12/17 09:16:15;;;;;;;9.47;7.30;;;;;;;2.27;100.00;100297.94;5093690;28;20204;-74
2023/12/17 09:18:41;;;;;;;11.43;7.47;;;;;;;2.28;100.00;100294.34;5093452;28;20224;-74
2023/12/17 09:21:08;;;;;;;8.20;7.30;;;;;;;2.32;100.00;100290.56;5093608;28;20204;-74
2023/12/17 09:23:34;;;;;;;9.03;8.13;;;;;;;2.35;100.00;100296.41;5093826;28;20204;-74
2023/12/17 09:26:00;;;;;;;8.70;7.80;;;;;;;2.26;100.00;100298.91;5093446;28;20199;-74
2023/12/17 09:28:27;;;;;;;8.73;7.57;;;;;;;2.27;100.00;100297.94;5093501;28;20230;-74
2023/12/17 09:30:53;;;;;;;10.33;7.80;;;;;;;2.36;100.00;100298.09;5093439;28;20601;-74
2023/12/17 09:33:21;;;;;;;9.10;7.70;;;;;;;2.41;100.00;100306.47;5093211;28;20208;-74
2023/12/17 09:35:47;;;;;;;9.40;8.17;;;;;;;2.46;100.00;100300.88;5096727;28;20204;-74
2023/12/17 09:38:14;;;;;;;8.23;7.47;;;;;;;2.56;100.00;100300.09;5100153;28;20547;-74
2023/12/17 09:40:41;;;;;;;9.20;7.40;;;;;;;2.40;100.00;100296.09;5100024;28;20232;-74
2023/12/17 09:43:10;;;;;;;10.23;7.67;;;;;;;2.42;100.00;100295.03;5100299;28;20210;-74
2023/12/17 09:45:39;;;;;;;8.90;8.00;;;;;;;2.49;100.00;100296.22;5099877;28;20214;-74
2023/12/17 09:48:06;;;;;;;8.67;7.33;;;;;;;2.53;100.00;100292.44;5100027;28;20682;-74
2023/12/17 09:50:32;;;;;;;8.33;7.53;;;;;;;2.64;100.00;100286.38;5100059;28;20301;-74
2023/12/17 09:52:58;;;;;;;8.83;7.27;;;;;;;2.72;100.00;100287.50;5100055;28;20205;-74
2023/12/17 09:55:25;;;;;;;8.17;7.13;;;;;;;2.74;100.00;100284.72;5100184;28;20199;-74
2023/12/17 09:57:52;;;;;;;9.10;7.80;;;;;;;2.74;100.00;100285.56;5100099;28;20203;-74
2023/12/17 10:00:18;;;;;;;9.53;7.83;;;;;;;2.76;100.00;100286.28;5099774;28;20231;-74
2023/12/17 10:02:45;;;;;;;9.13;8.23;;;;;;;2.94;100.00;100287.50;5100213;28;20199;-74
2023/12/17 10:05:11;;;;;;;8.23;7.40;;;;;;;2.95;100.00;100283.97;5100004;28;20199;-74
2023/12/17 10:07:38;;;;;;;8.53;7.23;;;;;;;3.02;100.00;100286.97;5100191;28;20203;-74
2023/12/17 10:10:06;;;;;;;9.03;8.13;;;;;;;3.05;100.00;100281.44;5099913;28;20220;-74
2023/12/17 10:12:32;;;;;;;8.60;7.70;;;;;;;3.15;100.00;100282.41;5100124;28;20228;-74
2023/12/17 10:14:59;;;;;;;7.97;7.23;;;;;;;3.12;100.00;100277.41;5099665;28;20203;-74
2023/12/17 10:17:26;;;;;;;8.77;7.47;;;;;;;3.19;100.00;100275.97;5099865;28;20206;-74
2023/12/17 10:19:53;;;;;;;9.80;7.83;;;;;;;3.25;100.00;100270.25;5099849;28;20322;-74
2023/12/17 10:22:22;;;;;;;7.73;7.03;;;;;;;3.40;100.00;100266.41;5099802;28;20204;-74
2023/12/17 10:24:49;;;;;;;8.50;7.60;;;;;;;3.39;100.00;100265.56;5099884;28;20204;-74
2023/12/17 10:27:22;;;;;;;8.40;7.47;;;;;;;3.42;100.00;100267.13;5099908;28;20206;-74
2023/12/17 10:29:53;;;;;;;9.30;7.77;;;;;;;3.44;100.00;100247.63;5099749;28;20220;-74
2023/12/17 10:32:24;;;;;;;9.17;6.87;;;;;;;3.31;100.00;100251.34;5099769;28;20200;-74
2023/12/17 10:34:52;;;;;;;9.93;7.73;;;;;;;3.51;100.00;100245.34;5099716;28;20198;-74
2023/12/17 10:37:23;;;;;;;8.57;7.13;;;;;;;3.45;100.00;100248.47;5099757;28;20210;-74
2023/12/17 10:39:51;;;;;;;8.00;7.20;;;;;;;3.44;100.00;100242.38;5099490;28;20224;-74
2023/12/17 10:42:18;;;;;;;8.87;7.90;;;;;;;3.43;100.00;100242.53;5099657;28;20238;-74
2023/12/17 10:44:49;;;;;;;9.40;7.60;;;;;;;3.51;100.00;100243.56;5099455;28;20200;-74
2023/12/17 10:47:22;;;;;;;9.57;8.00;;;;;;;3.58;100.00;100244.78;5096772;28;20188;-74
2023/12/17 10:49:49;;;;;;;8.67;7.70;;;;;;;3.64;100.00;100246.06;5096232;28;20703;-74
2023/12/17 10:52:16;;;;;;;8.63;7.73;;;;;;;3.68;100.00;100234.34;5096002;28;20234;-74
2023/12/17 10:54:42;;;;;;;12.27;7.73;;;;;;;3.74;100.00;100229.41;5096311;28;20204;-74
2023/12/17 10:57:14;;;;;;;8.17;7.37;;;;;;;3.92;100.00;100219.19;5095842;28;20207;-74
2023/12/17 10:59:44;;;;;;;9.30;8.00;;;;;;;3.87;100.00;100216.09;5078155;28;20686;-74
2023/12/17 11:02:12;;;;;;;8.70;7.87;;;;;;;3.93;100.00;100211.19;5095398;28;20303;-74
2023/12/17 11:04:45;;;;;;;10.63;7.40;;;;;;;4.01;100.00;100203.50;5095805;28;20565;-74
2023/12/17 11:07:11;;;;;;;8.60;7.80;;;;;;;4.04;100.00;100199.78;5096284;28;20242;-74
2023/12/17 11:09:38;;;;;;;8.60;7.80;;;;;;;4.14;100.00;100196.28;5095557;28;20219;-74
2023/12/17 11:12:06;;;;;;;9.90;7.83;;;;;;;4.15;100.00;100190.03;5096178;28;20231;-74
2023/12/17 11:14:33;;;;;;;8.33;7.43;;;;;;;4.19;100.00;100199.34;5095106;28;20261;-74